createdAt,value
2023-05-06T00:01:21.065Z,2.10
2023-05-06T00:03:48.224Z,2.10
2023-05-06T00:06:15.383Z,2.17
2023-05-06T00:08:42.319Z,1.92
2023-05-06T00:11:09.281Z,1.90
2023-05-06T00:13:37.790Z,2.10
2023-05-06T00:16:04.950Z,2.05
2023-05-06T00:18:31.810Z,2.70
2023-05-06T00:20:58.687Z,2.15
2023-05-06T00:23:25.724Z,2.50
2023-05-06T00:25:54.935Z,2.50
2023-05-06T00:28:22.049Z,2.17
2023-05-06T00:30:49.149Z,2.63
2023-05-06T00:33:16.120Z,1.38
2023-05-06T00:35:42.990Z,1.98
2023-05-06T00:38:13.567Z,1.60
2023-05-06T00:40:40.581Z,1.95
2023-05-06T00:43:07.709Z,2.58
2023-05-06T00:45:35.028Z,1.98
2023-05-06T00:48:02.490Z,1.70
2023-05-06T00:50:29.995Z,1.90
2023-05-06T00:52:59.592Z,1.63
2023-05-06T00:55:27.568Z,2.08
2023-05-06T00:57:55.476Z,2.15
2023-05-06T01:00:22.534Z,1.73
2023-05-06T01:02:49.675Z,2.10
2023-05-06T01:05:21.688Z,2.33
2023-05-06T01:08:18.020Z,1.80
2023-05-06T01:10:57.755Z,1.98
2023-05-06T01:13:36.021Z,1.88
2023-05-06T01:16:05.127Z,1.88
2023-05-06T01:18:33.494Z,2.08
2023-05-06T01:21:02.100Z,2.10
2023-05-06T01:23:28.930Z,1.92
2023-05-06T01:25:56.008Z,1.67
2023-05-06T01:28:22.898Z,2.17
2023-05-06T01:30:52.755Z,1.88
2023-05-06T01:33:33.497Z,2.10
2023-05-06T01:36:43.828Z,1.70
2023-05-06T01:39:26.806Z,1.83
2023-05-06T01:41:57.779Z,1.77
2023-05-06T01:44:27.884Z,1.60
2023-05-06T01:46:56.508Z,2.15
2023-05-06T01:49:25.282Z,1.95
2023-05-06T01:51:53.193Z,2.20
2023-05-06T01:54:20.177Z,2.00
2023-05-06T01:56:47.082Z,2.28
2023-05-06T01:59:13.988Z,2.63
2023-05-06T02:01:40.854Z,2.30
2023-05-06T02:04:07.843Z,2.20
2023-05-06T02:06:34.753Z,1.67
2023-05-06T02:09:01.706Z,1.75
2023-05-06T02:11:28.966Z,2.20
2023-05-06T02:13:55.862Z,1.98
2023-05-06T02:16:22.774Z,2.83
2023-05-06T02:18:49.689Z,2.10
2023-05-06T02:21:16.551Z,1.83
2023-05-06T02:23:43.374Z,2.17
2023-05-06T02:26:10.825Z,1.70
2023-05-06T02:28:37.745Z,2.15
2023-05-06T02:31:04.664Z,2.22
2023-05-06T02:33:31.784Z,2.47
2023-05-06T02:35:58.636Z,2.28
2023-05-06T02:38:26.283Z,2.38
2023-05-06T02:40:53.115Z,3.05
2023-05-06T02:43:19.956Z,2.60
2023-05-06T02:45:46.809Z,3.15
2023-05-06T02:48:13.696Z,2.40
2023-05-06T02:50:41.348Z,2.45
2023-05-06T02:53:09.565Z,3.42
2023-05-06T02:55:36.673Z,3.33
2023-05-06T02:58:03.473Z,3.00
2023-05-06T03:00:30.535Z,2.85
2023-05-06T03:02:57.479Z,3.92
2023-05-06T03:05:24.360Z,4.03
2023-05-06T03:07:51.392Z,3.88
2023-05-06T03:10:18.273Z,3.25
2023-05-06T03:12:45.150Z,3.67
2023-05-06T03:15:12.386Z,3.92
2023-05-06T03:17:39.517Z,3.40
2023-05-06T03:20:08.876Z,3.40
2023-05-06T03:22:36.022Z,4.50
2023-05-06T03:25:03.016Z,4.35
2023-05-06T03:27:29.882Z,4.93
2023-05-06T03:29:56.819Z,4.30
2023-05-06T03:32:23.719Z,4.65
2023-05-06T03:34:50.572Z,4.75
2023-05-06T03:37:19.033Z,3.95
2023-05-06T03:39:46.001Z,4.90
2023-05-06T03:42:12.913Z,4.55
2023-05-06T03:44:39.777Z,4.57
2023-05-06T03:47:06.627Z,4.55
2023-05-06T03:49:33.510Z,3.75
2023-05-06T03:52:00.577Z,4.13
2023-05-06T03:54:27.424Z,3.92
2023-05-06T03:56:54.307Z,3.88
2023-05-06T03:59:21.182Z,3.97
2023-05-06T04:01:48.086Z,3.60
2023-05-06T04:04:15.004Z,4.05
2023-05-06T04:06:41.880Z,3.33
2023-05-06T04:09:08.777Z,3.65
2023-05-06T04:11:36.476Z,5.07
2023-05-06T04:14:03.294Z,7.63
2023-05-06T04:16:30.176Z,5.63
2023-05-06T04:18:57.816Z,3.28
2023-05-06T04:21:24.779Z,3.42
2023-05-06T04:23:51.654Z,4.97
2023-05-06T04:26:18.576Z,4.57
2023-05-06T04:28:45.432Z,3.72
2023-05-06T04:31:13.615Z,3.40
2023-05-06T04:33:41.395Z,3.30
2023-05-06T04:36:09.036Z,3.33
2023-05-06T04:38:37.614Z,3.17
2023-05-06T04:41:05.677Z,2.83
2023-05-06T04:43:33.022Z,2.85
2023-05-06T04:45:59.975Z,2.92
2023-05-06T04:48:27.081Z,2.72
2023-05-06T04:50:53.972Z,3.80
2023-05-06T04:53:21.017Z,2.88
2023-05-06T04:55:47.868Z,3.97
2023-05-06T04:58:14.887Z,3.20
2023-05-06T05:00:41.834Z,3.78
2023-05-06T05:03:08.776Z,3.20
2023-05-06T05:05:35.726Z,2.97
2023-05-06T05:08:02.591Z,2.50
2023-05-06T05:10:29.483Z,3.53
2023-05-06T05:12:56.366Z,2.97
2023-05-06T05:15:23.519Z,2.78
2023-05-06T05:17:51.322Z,2.83
2023-05-06T05:20:18.368Z,2.53
2023-05-06T05:22:45.705Z,2.88
2023-05-06T05:25:13.238Z,2.65
2023-05-06T05:27:42.369Z,3.33
2023-05-06T05:30:09.981Z,2.80
2023-05-06T05:32:36.915Z,2.33
2023-05-06T05:35:04.288Z,2.53
2023-05-06T05:37:31.597Z,2.92
2023-05-06T05:39:58.694Z,3.00
2023-05-06T05:42:25.616Z,2.63
2023-05-06T05:44:52.856Z,2.30
2023-05-06T05:47:19.915Z,2.22
2023-05-06T05:49:46.834Z,2.92
2023-05-06T05:52:13.728Z,2.80
2023-05-06T05:54:40.654Z,2.65
2023-05-06T05:57:07.600Z,2.85
2023-05-06T05:59:34.493Z,2.65
2023-05-06T06:02:01.349Z,2.97
2023-05-06T06:04:28.381Z,2.78
2023-05-06T06:06:58.191Z,2.75
2023-05-06T06:09:25.405Z,3.17
2023-05-06T06:11:52.448Z,2.72
2023-05-06T06:14:19.302Z,2.42
2023-05-06T06:16:46.298Z,2.30
2023-05-06T06:19:15.125Z,2.10
2023-05-06T06:21:42.167Z,1.92
2023-05-06T06:24:09.050Z,1.90
2023-05-06T06:26:35.996Z,2.42
2023-05-06T06:29:03.006Z,2.30
2023-05-06T06:31:29.889Z,2.70
2023-05-06T06:33:56.788Z,2.33
2023-05-06T06:36:23.665Z,2.40
2023-05-06T06:38:50.504Z,3.47
2023-05-06T06:41:17.785Z,3.85
2023-05-06T06:43:44.684Z,3.03
2023-05-06T06:46:11.640Z,3.13
2023-05-06T06:48:38.549Z,3.55
2023-05-06T06:51:05.615Z,3.40
2023-05-06T06:53:32.470Z,3.65
2023-05-06T06:55:59.288Z,3.15
2023-05-06T06:58:26.236Z,3.47
2023-05-06T07:00:53.170Z,2.58
2023-05-06T07:03:20.007Z,3.03
2023-05-06T07:05:46.867Z,3.53
2023-05-06T07:08:13.826Z,2.67
2023-05-06T07:10:41.854Z,3.25
2023-05-06T07:13:08.703Z,3.35
2023-05-06T07:15:35.608Z,2.67
2023-05-06T07:18:02.478Z,2.80
2023-05-06T07:20:29.314Z,3.17
2023-05-06T07:22:56.297Z,2.72
2023-05-06T07:25:23.203Z,3.10
2023-05-06T07:27:50.452Z,2.70
2023-05-06T07:30:21.673Z,3.03
2023-05-06T07:32:49.325Z,2.30
2023-05-06T07:35:16.424Z,2.65
2023-05-06T07:37:46.027Z,2.38
2023-05-06T07:40:13.189Z,2.55
2023-05-06T07:42:43.022Z,2.50
2023-05-06T07:45:10.884Z,2.38
2023-05-06T07:47:38.005Z,2.28
2023-05-06T07:50:07.016Z,1.73
2023-05-06T07:52:34.196Z,1.95
2023-05-06T07:55:01.141Z,1.30
2023-05-06T07:57:28.029Z,1.27
2023-05-06T07:59:54.980Z,1.35
2023-05-06T08:02:22.039Z,1.17
2023-05-06T08:04:50.955Z,1.20
2023-05-06T08:07:18.572Z,1.35
2023-05-06T08:09:45.530Z,1.27
2023-05-06T08:12:12.452Z,1.50
2023-05-06T08:14:39.481Z,1.65
2023-05-06T08:17:06.359Z,4.35
2023-05-06T08:19:33.255Z,1.75
2023-05-06T08:22:00.115Z,1.60
2023-05-06T08:24:27.375Z,1.75
2023-05-06T08:26:54.236Z,1.13
2023-05-06T08:29:21.122Z,1.38
2023-05-06T08:31:48.088Z,1.20
2023-05-06T08:34:18.616Z,1.40
2023-05-06T08:36:45.591Z,1.48
2023-05-06T08:39:14.692Z,0.93
2023-05-06T08:41:47.608Z,1.10
2023-05-06T08:44:21.124Z,1.55
2023-05-06T08:46:48.477Z,0.98
2023-05-06T08:49:15.784Z,1.15
2023-05-06T08:51:46.307Z,1.02
2023-05-06T08:54:13.707Z,1.13
2023-05-06T08:56:46.614Z,0.90
2023-05-06T08:59:14.052Z,0.75
2023-05-06T09:01:41.118Z,0.90
2023-05-06T09:04:08.622Z,1.10
2023-05-06T09:06:35.603Z,0.75
2023-05-06T09:09:02.449Z,0.80
2023-05-06T09:11:30.371Z,0.88
2023-05-06T09:14:11.263Z,0.70
2023-05-06T09:16:39.994Z,0.90
2023-05-06T09:19:06.946Z,0.60
2023-05-06T09:21:39.330Z,0.73
2023-05-06T09:24:09.046Z,1.02
2023-05-06T09:26:38.761Z,0.82
2023-05-06T09:29:06.895Z,1.02
2023-05-06T09:31:40.798Z,0.93
2023-05-06T09:34:07.964Z,0.70
2023-05-06T09:36:34.837Z,0.93
2023-05-06T09:39:01.707Z,1.15
2023-05-06T09:41:29.501Z,1.00
2023-05-06T09:43:58.080Z,1.08
2023-05-06T09:46:27.342Z,1.10
2023-05-06T09:48:57.065Z,1.63
2023-05-06T09:51:24.037Z,0.77
2023-05-06T09:53:51.732Z,0.80
2023-05-06T09:56:21.568Z,0.60
2023-05-06T09:58:49.292Z,0.70
2023-05-06T10:01:28.682Z,0.95
2023-05-06T10:04:01.752Z,0.90
2023-05-06T10:06:28.963Z,1.13
2023-05-06T10:08:56.601Z,0.68
2023-05-06T10:11:23.596Z,0.47
2023-05-06T10:13:51.151Z,0.50
2023-05-06T10:16:19.604Z,0.82
2023-05-06T10:18:47.192Z,0.80
2023-05-06T10:21:22.115Z,0.65
2023-05-06T10:23:57.953Z,1.20
2023-05-06T10:26:28.053Z,0.65
2023-05-06T10:28:55.090Z,0.98
2023-05-06T10:31:22.048Z,0.50
2023-05-06T10:33:51.460Z,1.17
2023-05-06T10:36:26.222Z,0.75
2023-05-06T10:39:00.539Z,0.75
2023-05-06T10:41:29.118Z,0.60
2023-05-06T10:43:57.452Z,0.60
2023-05-06T10:46:26.904Z,0.50
2023-05-06T10:49:11.633Z,0.57
2023-05-06T10:51:39.385Z,1.05
2023-05-06T10:54:11.574Z,0.63
2023-05-06T10:56:40.985Z,0.80
2023-05-06T10:59:12.862Z,0.52
2023-05-06T11:01:44.271Z,0.60
2023-05-06T11:04:14.863Z,0.70
2023-05-06T11:06:53.729Z,0.70
2023-05-06T11:09:23.141Z,0.60
2023-05-06T11:12:03.151Z,0.68
2023-05-06T11:14:31.797Z,0.75
2023-05-06T11:17:00.439Z,0.70
2023-05-06T11:19:30.474Z,0.65
2023-05-06T11:21:59.985Z,0.60
2023-05-06T11:24:41.110Z,0.60
2023-05-06T11:27:09.610Z,0.70
2023-05-06T11:29:37.326Z,0.80
2023-05-06T11:32:05.897Z,0.60
2023-05-06T11:34:35.878Z,0.88
2023-05-06T11:37:06.180Z,0.50
2023-05-06T11:39:40.519Z,0.75
2023-05-06T11:42:09.205Z,0.40
2023-05-06T11:44:40.013Z,0.50
2023-05-06T11:47:09.506Z,0.85
2023-05-06T11:49:38.812Z,0.80
2023-05-06T11:52:06.055Z,0.60
2023-05-06T11:54:39.719Z,0.73
2023-05-06T11:57:06.937Z,0.85
2023-05-06T11:59:37.648Z,0.50
2023-05-06T12:02:07.678Z,0.75
2023-05-06T12:04:46.578Z,0.98
2023-05-06T12:07:16.107Z,0.50
2023-05-06T12:09:48.056Z,0.60
2023-05-06T12:12:24.281Z,0.52
2023-05-06T12:15:05.053Z,0.40
2023-05-06T12:17:31.934Z,0.90
2023-05-06T12:19:59.039Z,0.75
2023-05-06T12:22:26.019Z,0.50
2023-05-06T12:24:53.016Z,0.52
2023-05-06T12:27:48.883Z,0.70
2023-05-06T12:30:15.848Z,0.80
2023-05-06T12:33:02.163Z,0.60
2023-05-06T12:35:30.814Z,0.88
2023-05-06T12:38:08.736Z,0.73
2023-05-06T12:40:35.922Z,0.73
2023-05-06T12:43:02.868Z,0.80
2023-05-06T12:45:30.333Z,0.60
2023-05-06T12:48:00.250Z,1.05
2023-05-06T12:50:35.441Z,0.80
2023-05-06T12:53:35.699Z,0.95
2023-05-06T12:56:02.682Z,1.08
2023-05-06T12:58:29.553Z,0.80
2023-05-06T13:00:56.497Z,0.82
2023-05-06T13:03:23.472Z,0.80
2023-05-06T13:05:52.100Z,0.60
2023-05-06T13:08:19.152Z,0.60
2023-05-06T13:10:46.022Z,0.63
2023-05-06T13:13:12.994Z,0.63
2023-05-06T13:15:40.022Z,0.80
2023-05-06T13:18:06.938Z,1.40
2023-05-06T13:20:33.929Z,0.98
2023-05-06T13:23:01.005Z,0.60
2023-05-06T13:25:27.995Z,0.52
2023-05-06T13:27:54.878Z,0.55
2023-05-06T13:30:21.822Z,0.77
2023-05-06T13:32:48.923Z,0.77
2023-05-06T13:35:15.939Z,0.60
2023-05-06T13:37:42.769Z,1.13
2023-05-06T13:40:10.852Z,0.50
2023-05-06T13:42:38.981Z,0.60
2023-05-06T13:45:06.906Z,0.80
2023-05-06T13:47:33.792Z,0.90
2023-05-06T13:50:01.041Z,1.23
2023-05-06T13:52:28.187Z,0.70
2023-05-06T13:54:55.439Z,0.50
2023-05-06T13:57:24.591Z,0.60
2023-05-06T13:59:51.622Z,0.80
2023-05-06T14:02:18.538Z,0.77
2023-05-06T14:04:45.441Z,0.85
2023-05-06T14:07:12.303Z,0.40
2023-05-06T14:09:39.160Z,0.88
2023-05-06T14:12:06.105Z,0.55
2023-05-06T14:14:33.045Z,0.95
2023-05-06T14:16:59.900Z,0.98
2023-05-06T14:19:27.167Z,0.90
2023-05-06T14:21:54.062Z,0.73
2023-05-06T14:24:20.901Z,0.77
2023-05-06T14:26:47.814Z,0.60
2023-05-06T14:29:14.797Z,0.70
2023-05-06T14:31:41.717Z,0.52
2023-05-06T14:34:08.984Z,0.60
2023-05-06T14:36:36.113Z,0.70
2023-05-06T14:39:02.987Z,0.75
2023-05-06T14:41:29.869Z,0.77
2023-05-06T14:43:56.675Z,0.63
2023-05-06T14:46:23.613Z,0.73
2023-05-06T14:48:50.873Z,0.70
2023-05-06T14:51:17.725Z,0.50
2023-05-06T14:53:46.827Z,0.60
2023-05-06T14:56:13.722Z,0.40
2023-05-06T14:58:40.621Z,0.90
2023-05-06T15:01:07.721Z,0.90
2023-05-06T15:03:34.624Z,0.90
2023-05-06T15:06:01.472Z,0.70
2023-05-06T15:08:28.364Z,0.85
2023-05-06T15:10:55.213Z,1.00
2023-05-06T15:13:22.103Z,1.30
2023-05-06T15:15:48.980Z,0.70
2023-05-06T15:18:15.994Z,1.00
2023-05-06T15:20:42.875Z,0.85
2023-05-06T15:23:09.746Z,0.77
2023-05-06T15:25:36.971Z,0.73
2023-05-06T15:28:08.505Z,0.60
2023-05-06T15:30:38.203Z,1.02
2023-05-06T15:33:05.992Z,0.70
2023-05-06T15:35:32.876Z,0.47
2023-05-06T15:37:59.786Z,0.77
2023-05-06T15:40:27.201Z,0.70
2023-05-06T15:42:54.270Z,0.50
2023-05-06T15:45:22.195Z,0.80
2023-05-06T15:47:49.124Z,0.70
2023-05-06T15:50:25.297Z,0.60
2023-05-06T15:53:00.048Z,0.85
2023-05-06T15:55:26.925Z,0.70
2023-05-06T15:57:54.995Z,0.73
2023-05-06T16:00:22.516Z,0.73
2023-05-06T16:02:49.609Z,1.00
2023-05-06T16:05:16.780Z,0.98
2023-05-06T16:07:43.912Z,1.15
2023-05-06T16:10:11.109Z,0.98
2023-05-06T16:12:38.220Z,0.80
2023-05-06T16:15:05.684Z,1.40
2023-05-06T16:17:37.704Z,1.23
2023-05-06T16:20:05.980Z,1.30
2023-05-06T16:22:32.897Z,1.00
2023-05-06T16:24:59.735Z,0.95
2023-05-06T16:27:28.418Z,0.52
2023-05-06T16:29:55.731Z,0.82
2023-05-06T16:32:23.705Z,0.60
2023-05-06T16:34:53.382Z,1.70
2023-05-06T16:37:20.363Z,1.40
2023-05-06T16:39:47.276Z,1.60
2023-05-06T16:42:14.147Z,0.90
2023-05-06T16:44:40.995Z,2.25
2023-05-06T16:47:07.896Z,1.13
2023-05-06T16:49:35.091Z,1.45
2023-05-06T16:52:02.056Z,1.25
2023-05-06T16:54:28.896Z,2.45
2023-05-06T16:56:55.806Z,1.20
2023-05-06T16:59:22.772Z,0.63
2023-05-06T17:01:51.056Z,1.20
2023-05-06T17:04:17.950Z,0.60
2023-05-06T17:06:44.839Z,0.70
2023-05-06T17:09:12.338Z,0.90
2023-05-06T17:11:39.157Z,0.90
2023-05-06T17:14:06.100Z,0.70
2023-05-06T17:16:33.018Z,0.93
2023-05-06T17:18:59.935Z,1.02
2023-05-06T17:21:27.997Z,0.73
2023-05-06T17:23:54.870Z,0.90
2023-05-06T17:26:22.149Z,0.95
2023-05-06T17:28:49.127Z,0.85
2023-05-06T17:31:16.301Z,0.70
2023-05-06T17:33:45.153Z,1.00
2023-05-06T17:36:16.901Z,0.80
2023-05-06T17:38:43.773Z,0.68
2023-05-06T17:41:10.965Z,0.73
2023-05-06T17:43:37.873Z,0.65
2023-05-06T17:46:04.906Z,0.88
2023-05-06T17:48:31.893Z,1.10
2023-05-06T17:51:02.812Z,1.05
2023-05-06T17:53:29.921Z,1.00
2023-05-06T17:55:57.244Z,0.88
2023-05-06T17:58:24.147Z,1.70
2023-05-06T18:00:51.003Z,0.73
2023-05-06T18:03:17.957Z,1.42
2023-05-06T18:05:46.261Z,1.02
2023-05-06T18:08:13.252Z,0.57
2023-05-06T18:10:41.304Z,0.90
2023-05-06T18:13:08.706Z,0.95
2023-05-06T18:15:35.743Z,1.83
2023-05-06T18:18:02.858Z,3.97
2023-05-06T18:20:29.947Z,1.48
2023-05-06T18:22:58.341Z,1.45
2023-05-06T18:25:25.645Z,1.38
2023-05-06T18:27:52.737Z,2.42
2023-05-06T18:30:19.609Z,1.40
2023-05-06T18:32:47.360Z,3.63
2023-05-06T18:35:15.858Z,6.60
2023-05-06T18:37:42.789Z,3.80
2023-05-06T18:40:10.127Z,1.23
2023-05-06T18:42:37.078Z,1.02
2023-05-06T18:45:07.049Z,0.70
2023-05-06T18:47:34.057Z,1.08
2023-05-06T18:50:00.969Z,1.20
2023-05-06T18:52:27.790Z,1.08
2023-05-06T18:56:06.655Z,1.30
2023-05-06T18:58:37.159Z,1.20
2023-05-06T19:01:09.272Z,1.02
2023-05-06T19:03:37.405Z,0.90
2023-05-06T19:06:08.224Z,1.00
2023-05-06T19:08:35.772Z,1.02
2023-05-06T19:11:03.094Z,1.30
2023-05-06T19:13:30.152Z,0.98
2023-05-06T19:15:57.364Z,0.90
2023-05-06T19:18:24.330Z,2.00
2023-05-06T19:20:51.422Z,1.67
2023-05-06T19:23:19.408Z,1.42
2023-05-06T19:25:46.251Z,1.15
2023-05-06T19:28:13.126Z,0.98
2023-05-06T19:30:40.076Z,2.03
2023-05-06T19:33:07.046Z,1.63
2023-05-06T19:35:33.980Z,1.48
2023-05-06T19:38:00.963Z,1.75
2023-05-06T19:40:29.081Z,1.67
2023-05-06T19:42:58.503Z,3.35
2023-05-06T19:45:25.565Z,1.40
2023-05-06T19:47:52.930Z,1.77
2023-05-06T19:50:19.825Z,1.88
2023-05-06T19:52:46.687Z,1.48
2023-05-06T19:55:13.748Z,1.10
2023-05-06T19:57:40.764Z,1.40
2023-05-06T20:00:11.043Z,1.50
2023-05-06T20:02:38.560Z,1.63
2023-05-06T20:05:06.724Z,1.38
2023-05-06T20:07:34.102Z,1.65
2023-05-06T20:10:01.241Z,1.40
2023-05-06T20:12:28.239Z,1.95
2023-05-06T20:14:56.272Z,1.55
2023-05-06T20:17:24.067Z,1.85
2023-05-06T20:19:51.095Z,2.35
2023-05-06T20:22:18.307Z,1.85
2023-05-06T20:24:45.566Z,2.47
2023-05-06T20:27:12.442Z,2.95
2023-05-06T20:29:42.844Z,2.00
2023-05-06T20:32:10.042Z,1.52
2023-05-06T20:34:36.980Z,2.03
2023-05-06T20:37:04.834Z,1.95
2023-05-06T20:39:31.733Z,1.40
2023-05-06T20:41:58.793Z,1.80
2023-05-06T20:44:25.872Z,1.40
2023-05-06T20:46:52.850Z,2.70
2023-05-06T20:49:20.347Z,1.05
2023-05-06T20:51:47.663Z,1.10
2023-05-06T20:54:14.928Z,1.90
2023-05-06T20:56:43.225Z,1.17
2023-05-06T20:59:10.575Z,1.20
2023-05-06T21:01:37.831Z,1.17
2023-05-06T21:04:06.279Z,1.80
2023-05-06T21:06:33.255Z,1.95
2023-05-06T21:09:00.162Z,1.48
2023-05-06T21:11:28.927Z,1.10
2023-05-06T21:13:56.000Z,1.17
2023-05-06T21:16:23.113Z,1.33
2023-05-06T21:18:50.091Z,1.23
2023-05-06T21:21:16.983Z,1.60
2023-05-06T21:23:43.905Z,1.00
2023-05-06T21:26:12.828Z,1.23
2023-05-06T21:28:39.692Z,1.23
2023-05-06T21:31:06.873Z,1.23
2023-05-06T21:33:34.239Z,1.23
2023-05-06T21:36:01.161Z,1.60
2023-05-06T21:38:28.129Z,1.30
2023-05-06T21:40:55.960Z,1.90
2023-05-06T21:43:22.945Z,1.63
2023-05-06T21:45:49.887Z,1.73
2023-05-06T21:48:16.937Z,1.15
2023-05-06T21:50:43.892Z,1.20
2023-05-06T21:53:10.752Z,1.42
2023-05-06T21:55:37.666Z,1.40
2023-05-06T21:58:04.654Z,1.40
2023-05-06T22:00:31.561Z,1.38
2023-05-06T22:02:59.425Z,1.55
2023-05-06T22:05:26.390Z,1.77
2023-05-06T22:07:53.291Z,2.17
2023-05-06T22:10:20.182Z,1.20
2023-05-06T22:12:47.307Z,1.40
2023-05-06T22:15:14.986Z,1.40
2023-05-06T22:17:41.898Z,1.40
2023-05-06T22:20:11.583Z,1.60
2023-05-06T22:22:38.706Z,1.20
2023-05-06T22:25:06.286Z,2.00
2023-05-06T22:27:33.447Z,1.40
2023-05-06T22:30:00.318Z,1.50
2023-05-06T22:32:27.817Z,1.23
2023-05-06T22:34:55.240Z,1.40
2023-05-06T22:37:22.431Z,1.60
2023-05-06T22:39:51.062Z,1.80
2023-05-06T22:42:18.010Z,1.40
2023-05-06T22:44:44.871Z,1.85
2023-05-06T22:47:11.728Z,1.52
2023-05-06T22:49:38.776Z,1.45
2023-05-06T22:52:05.849Z,1.27
2023-05-06T22:54:32.898Z,2.92
2023-05-06T22:57:00.042Z,1.55
2023-05-06T22:59:27.520Z,1.83
2023-05-06T23:01:55.192Z,1.50
2023-05-06T23:04:23.294Z,1.58
2023-05-06T23:06:50.179Z,1.40
2023-05-06T23:09:17.289Z,1.38
2023-05-06T23:11:45.962Z,1.63
2023-05-06T23:14:13.450Z,1.85
2023-05-06T23:16:40.527Z,1.67
2023-05-06T23:19:07.445Z,1.40
2023-05-06T23:21:34.337Z,1.70
2023-05-06T23:24:01.743Z,1.80
2023-05-06T23:26:28.782Z,1.88
2023-05-06T23:28:56.001Z,2.20
2023-05-06T23:31:22.984Z,1.98
2023-05-06T23:33:50.102Z,1.75
2023-05-06T23:36:17.904Z,1.65
2023-05-06T23:38:44.914Z,1.35
2023-05-06T23:41:12.274Z,1.98
2023-05-06T23:43:39.414Z,1.90
2023-05-06T23:46:06.461Z,2.17
2023-05-06T23:48:34.785Z,1.20
2023-05-06T23:51:01.808Z,1.75
2023-05-06T23:53:28.792Z,1.65
2023-05-06T23:55:56.091Z,2.10
2023-05-06T23:58:23.214Z,2.10
